Main page
METAR-TAF:

METAR-TAF

Airports :

Biju Patnaik International Airport

Bhubaneswar, India

latitude: 20-14-40N, longitude: 85-49-04E, elevation: 45 m

Current weather observation

The report was made 33 minutes ago, at 02:00 UTC
Calm wind
Temperature 21°C
Humidity 100%
Pressure 1014 hPa
Visibility: 4000 m
mist

METAR: VEBS 110200Z 00000KT 4000 BR NSC 21/21 Q1014 BECMG 5000 HZ

Time: 08:03 (02:33 UTC)

Forecast

The report was made 3 hours and 33 minutes ago, at 23:00 UTC
Forecast valid from 11 at 00 UTC to 11 at 09 UTC
Wind kt from the North
Visibility: 3000 m
mist
Becoming
from 11 at 02 UTC to 11 at 04 UTC
Visibility: 1000 m
Shallow fog

TAF: VEBS 102300Z 1100/1109 00000KT 3000 BR NSC BECMG 1102/1104 1000 MIFG

Weather observations and forecasts of more than 4000 airports (METAR and TAF reports).

The available stations are represented by yellow and red dots on the map.

Hover mouse over dot to see the name of the station.

Then click to see weather observations and forecasts.

To change the map : click on the green buttons with a black cross to zoom in, on the green button with a dash to zoom out, or on the green arrows for adjacent maps.


METAR-TAF: